Time;durP1;ratioP1;P1;durP2;ratioP2;P2;SDS_P1;SDS_P2;PMS_P1;PMS_P2;Temp;Humidity;BMP_temperature;BMP_pressure;BME280_temperature;BME280_humidity;BME280_pressure;Samples;Min_cycle;Max_cycle;Signal;HPM_P1;HPM_P2
2023/03/23 00:00:48;;;;;;;4.38;1.80;;;13.20;99.90;;;;;;4990590;28;20114;-74
2023/03/23 00:03:14;;;;;;;4.43;1.88;;;13.10;99.90;;;;;;4974874;28;20050;-75
2023/03/23 00:05:41;;;;;;;4.63;1.42;;;13.10;99.90;;;;;;4980438;28;20038;-75
2023/03/23 00:08:08;;;;;;;2.80;1.25;;;13.10;99.90;;;;;;4964124;28;20053;-75
2023/03/23 00:10:37;;;;;;;5.13;1.77;;;13.10;99.90;;;;;;4974724;28;20068;-74
2023/03/23 00:13:03;;;;;;;2.38;1.35;;;13.10;99.90;;;;;;4990172;28;20050;-75
2023/03/23 00:15:33;;;;;;;4.25;1.38;;;13.10;99.90;;;;;;4948006;28;20047;-75
2023/03/23 00:18:02;;;;;;;3.38;1.40;;;13.10;99.90;;;;;;4979866;28;20057;-75
2023/03/23 00:20:29;;;;;;;4.60;1.65;;;13.10;99.90;;;;;;4971261;28;20042;-75
2023/03/23 00:22:59;;;;;;;2.95;1.40;;;13.10;99.90;;;;;;4986872;28;20081;-75
2023/03/23 00:25:25;;;;;;;8.70;2.63;;;13.20;99.90;;;;;;4973099;28;20092;-75
2023/03/23 00:27:51;;;;;;;3.83;1.75;;;13.20;99.90;;;;;;4960114;28;20050;-75
2023/03/23 00:30:17;;;;;;;6.35;1.80;;;13.20;99.90;;;;;;4979857;28;20086;-75
2023/03/23 00:32:43;;;;;;;5.15;1.85;;;13.20;99.90;;;;;;4974080;28;20182;-75
2023/03/23 00:35:09;;;;;;;4.57;2.13;;;13.20;99.90;;;;;;4985355;28;20059;-75
2023/03/23 00:37:35;;;;;;;4.72;2.15;;;13.20;99.90;;;;;;4969663;28;20051;-75
2023/03/23 00:40:06;;;;;;;7.80;2.58;;;13.30;99.90;;;;;;4965404;28;20518;-75
2023/03/23 00:42:36;;;;;;;7.35;2.17;;;13.30;99.90;;;;;;4958782;28;20042;-74
2023/03/23 00:45:06;;;;;;;5.40;2.17;;;13.30;99.90;;;;;;4967203;28;20375;-75
2023/03/23 00:47:35;;;;;;;4.53;2.05;;;13.30;99.90;;;;;;4968321;28;20046;-76
2023/03/23 00:50:02;;;;;;;3.88;1.50;;;13.30;99.90;;;;;;4984002;28;20221;-75
2023/03/23 00:52:28;;;;;;;6.30;2.10;;;13.30;99.90;;;;;;4981180;28;20809;-74
2023/03/23 00:54:54;;;;;;;3.85;1.30;;;13.20;99.90;;;;;;4984755;28;20054;-76
2023/03/23 00:57:23;;;;;;;5.10;1.70;;;13.10;99.90;;;;;;4991819;28;20052;-75
2023/03/23 00:59:52;;;;;;;4.68;1.80;;;12.90;99.90;;;;;;4981549;28;20160;-75
2023/03/23 01:02:19;;;;;;;3.60;1.30;;;12.90;99.90;;;;;;4988066;28;20089;-75
2023/03/23 01:04:45;;;;;;;2.80;1.38;;;12.80;99.90;;;;;;4958229;28;20429;-74
2023/03/23 01:07:14;;;;;;;2.80;1.20;;;12.80;99.90;;;;;;4972795;28;20086;-75
2023/03/23 01:09:39;;;;;;;3.00;1.38;;;12.80;99.90;;;;;;4969404;28;20050;-75
2023/03/23 01:12:05;;;;;;;3.22;1.10;;;12.80;99.90;;;;;;4958625;28;20391;-75
2023/03/23 01:14:31;;;;;;;2.30;1.20;;;12.80;99.90;;;;;;4992761;28;20050;-75
2023/03/23 01:16:57;;;;;;;3.08;1.10;;;12.80;99.90;;;;;;4983183;28;20531;-75
2023/03/23 01:19:22;;;;;;;3.35;1.00;;;12.70;99.90;;;;;;4956480;28;20120;-74
2023/03/23 01:21:48;;;;;;;2.97;1.10;;;12.80;99.90;;;;;;4982461;28;20043;-75
2023/03/23 01:24:14;;;;;;;2.60;1.27;;;12.70;99.90;;;;;;4948867;28;20077;-75
2023/03/23 01:26:40;;;;;;;3.22;1.25;;;12.70;99.90;;;;;;4961642;28;20057;-75
2023/03/23 01:29:05;;;;;;;2.63;1.10;;;12.70;99.90;;;;;;4970694;28;20743;-75
2023/03/23 01:31:31;;;;;;;4.25;1.52;;;12.60;99.90;;;;;;4957792;28;20550;-75
2023/03/23 01:33:57;;;;;;;4.85;1.35;;;12.60;99.90;;;;;;4977538;28;20114;-75
2023/03/23 01:36:26;;;;;;;3.15;1.20;;;12.50;99.90;;;;;;4948866;28;20059;-75
2023/03/23 01:38:53;;;;;;;4.10;1.50;;;12.50;99.90;;;;;;4975120;28;20069;-75
2023/03/23 01:41:20;;;;;;;6.10;1.67;;;12.50;99.90;;;;;;4950596;28;20482;-75
2023/03/23 01:44:01;;;;;;;5.63;1.50;;;12.60;99.90;;;;;;4975904;28;20375;-75
2023/03/23 01:46:33;;;;;;;5.32;1.85;;;12.60;99.90;;;;;;4981350;28;20633;-75
2023/03/23 01:49:21;;;;;;;4.00;1.73;;;12.60;99.90;;;;;;4971522;28;20544;-75
2023/03/23 01:51:57;;;;;;;;;;;12.50;99.90;;;;;;4984603;28;20122;-75
2023/03/23 01:54:23;;;;;;;3.30;1.30;;;12.60;99.90;;;;;;5005061;28;20348;-75
2023/03/23 01:56:59;;;;;;;3.35;1.30;;;12.50;99.90;;;;;;4959723;28;20056;-75
2023/03/23 01:59:25;;;;;;;6.40;1.85;;;12.50;99.90;;;;;;4987269;28;20045;-75
2023/03/23 02:01:52;;;;;;;3.08;1.40;;;12.40;99.90;;;;;;4953179;28;20345;-75
2023/03/23 02:04:18;;;;;;;5.03;1.38;;;12.40;99.90;;;;;;4959139;28;20542;-75
2023/03/23 02:06:44;;;;;;;4.70;1.45;;;12.30;99.90;;;;;;4969048;28;20046;-75
2023/03/23 02:09:10;;;;;;;4.35;1.30;;;12.30;99.90;;;;;;4964416;28;20201;-75
2023/03/23 02:11:36;;;;;;;6.15;1.80;;;12.30;99.90;;;;;;4959505;28;20046;-75
2023/03/23 02:14:04;;;;;;;4.53;1.33;;;12.30;99.90;;;;;;4965004;28;20046;-75
2023/03/23 02:16:44;;;;;;;5.78;1.52;;;12.20;99.90;;;;;;4959562;28;20055;-74
2023/03/23 02:19:38;;;;;;;7.68;1.50;;;12.30;99.90;;;;;;4990109;28;20185;-74
2023/03/23 02:22:15;;;;;;;3.58;1.33;;;12.30;99.90;;;;;;4986722;28;20038;-76
2023/03/23 02:24:55;;;;;;;5.05;1.80;;;12.30;99.90;;;;;;4985877;28;20043;-75
2023/03/23 02:27:47;;;;;;;4.75;1.88;;;12.20;99.90;;;;;;4964437;28;20073;-74
2023/03/23 02:30:43;;;;;;;6.75;1.80;;;12.20;99.90;;;;;;4981032;28;20047;-76
2023/03/23 02:33:24;;;;;;;5.45;1.95;;;12.20;99.90;;;;;;4979635;28;20504;-75
2023/03/23 02:36:16;;;;;;;8.73;2.10;;;12.20;99.90;;;;;;4985798;28;20379;-75
2023/03/23 02:38:58;;;;;;;6.68;2.30;;;12.20;99.90;;;;;;4979310;28;20057;-75
2023/03/23 02:41:37;;;;;;;3.88;1.20;;;12.20;99.90;;;;;;4954778;28;20757;-75
2023/03/23 02:44:03;;;;;;;4.60;1.98;;;12.20;99.90;;;;;;4965442;28;20050;-75
2023/03/23 02:46:30;;;;;;;7.30;2.60;;;12.20;99.90;;;;;;4947426;28;20564;-75
2023/03/23 02:48:56;;;;;;;8.48;2.25;;;12.20;99.90;;;;;;4986669;28;20056;-75
2023/03/23 02:51:22;;;;;;;5.22;2.25;;;12.30;99.90;;;;;;4961289;28;20045;-76
2023/03/23 02:53:49;;;;;;;6.40;2.35;;;12.30;99.90;;;;;;4966590;28;20035;-74
2023/03/23 02:56:14;;;;;;;6.07;2.00;;;12.30;99.90;;;;;;4962820;28;20057;-74
2023/03/23 02:58:40;;;;;;;4.68;1.70;;;12.30;99.90;;;;;;4969256;28;21010;-75
2023/03/23 03:01:26;;;;;;;4.18;1.55;;;12.30;99.90;;;;;;4949594;28;20042;-75
2023/03/23 03:03:56;;;;;;;3.50;1.52;;;12.30;99.90;;;;;;4979897;28;20053;-75
2023/03/23 03:06:48;;;;;;;4.45;1.50;;;12.20;99.90;;;;;;4962399;28;20074;-74
2023/03/23 03:09:34;;;;;;;3.30;1.40;;;12.20;99.90;;;;;;4979332;28;20038;-75
2023/03/23 03:12:10;;;;;;;4.68;1.40;;;12.30;99.90;;;;;;4984194;28;20073;-75
2023/03/23 03:14:39;;;;;;;4.28;1.50;;;12.20;99.90;;;;;;4975548;28;20073;-75
2023/03/23 03:17:20;;;;;;;5.03;1.27;;;12.20;99.90;;;;;;4948366;28;20539;-75
2023/03/23 03:19:47;;;;;;;4.38;1.80;;;12.20;99.90;;;;;;4971003;28;20471;-75
2023/03/23 03:22:13;;;;;;;4.22;1.48;;;12.20;99.90;;;;;;4948747;28;20096;-76
2023/03/23 03:24:40;;;;;;;4.07;1.48;;;12.10;99.90;;;;;;4948507;28;20122;-76
2023/03/23 03:27:10;;;;;;;4.47;1.83;;;12.10;99.90;;;;;;4950789;28;20046;-75
2023/03/23 03:29:37;;;;;;;6.50;2.08;;;12.00;99.90;;;;;;4973087;28;20132;-76
2023/03/23 03:32:05;;;;;;;3.90;2.00;;;12.00;99.90;;;;;;4967863;28;20368;-75
2023/03/23 03:34:31;;;;;;;4.23;1.80;;;11.90;99.90;;;;;;4985066;28;20398;-75
2023/03/23 03:36:58;;;;;;;2.90;1.65;;;11.90;99.90;;;;;;4969305;28;20317;-76
2023/03/23 03:39:24;;;;;;;5.15;2.05;;;11.90;99.90;;;;;;4987383;28;20060;-75
2023/03/23 03:41:50;;;;;;;6.53;2.03;;;11.80;99.90;;;;;;4948241;28;20044;-76
2023/03/23 03:44:16;;;;;;;5.30;1.90;;;11.80;99.90;;;;;;4972879;28;20456;-76
2023/03/23 03:46:41;;;;;;;3.47;1.58;;;11.80;99.90;;;;;;4972225;28;20042;-75
2023/03/23 03:49:08;;;;;;;5.20;2.03;;;11.70;99.90;;;;;;4941775;28;20106;-74
2023/03/23 03:51:34;;;;;;;7.15;2.17;;;11.70;99.90;;;;;;4968604;28;20050;-75
2023/03/23 03:54:00;;;;;;;4.00;1.70;;;11.70;99.90;;;;;;4966919;28;20053;-74
2023/03/23 03:56:26;;;;;;;5.10;1.73;;;11.70;99.90;;;;;;4982033;28;20371;-75
2023/03/23 03:58:52;;;;;;;4.80;1.58;;;11.70;99.90;;;;;;4942450;28;20046;-75
2023/03/23 04:01:21;;;;;;;4.57;1.60;;;11.70;99.90;;;;;;4954221;28;20041;-75
2023/03/23 04:03:47;;;;;;;3.22;1.60;;;11.70;99.90;;;;;;4984682;28;20050;-75
2023/03/23 04:06:12;;;;;;;3.72;1.77;;;11.70;99.90;;;;;;4957116;28;20415;-75
2023/03/23 04:08:38;;;;;;;4.53;1.98;;;11.60;99.90;;;;;;4976312;28;20046;-75
2023/03/23 04:11:04;;;;;;;6.05;1.80;;;11.60;99.90;;;;;;4939412;28;20042;-74
2023/03/23 04:13:30;;;;;;;3.25;1.70;;;11.60;99.90;;;;;;4979657;28;20096;-75
2023/03/23 04:15:57;;;;;;;5.82;1.88;;;11.60;99.90;;;;;;4970596;28;20622;-74
2023/03/23 04:18:24;;;;;;;5.40;2.38;;;11.60;99.90;;;;;;4971855;28;20451;-75
2023/03/23 04:20:50;;;;;;;7.72;3.10;;;11.60;99.90;;;;;;4965602;28;20051;-74
2023/03/23 04:23:21;;;;;;;7.05;3.00;;;11.50;99.90;;;;;;4976483;28;20039;-75
2023/03/23 04:25:48;;;;;;;7.15;2.63;;;11.50;99.90;;;;;;4959278;28;20051;-74
2023/03/23 04:28:16;;;;;;;9.02;2.80;;;11.50;99.90;;;;;;4978182;28;20051;-74
2023/03/23 04:30:43;;;;;;;5.73;2.60;;;11.40;99.90;;;;;;4965214;28;20042;-74
2023/03/23 04:33:14;;;;;;;5.88;2.58;;;11.40;99.90;;;;;;4950872;28;20059;-76
2023/03/23 04:35:41;;;;;;;5.88;2.53;;;11.30;99.90;;;;;;4968186;28;20455;-74
2023/03/23 04:38:07;;;;;;;4.57;2.30;;;11.30;99.90;;;;;;4959156;28;20054;-74
2023/03/23 04:40:35;;;;;;;6.95;2.38;;;11.30;99.90;;;;;;4965363;28;20050;-74
2023/03/23 04:43:05;;;;;;;;;;;11.30;99.90;;;;;;4989123;28;20077;-74
2023/03/23 04:45:31;;;;;;;4.40;2.28;;;11.20;99.90;;;;;;4982217;28;19964;-74
2023/03/23 04:47:57;;;;;;;6.68;2.20;;;11.20;99.90;;;;;;4940875;28;20081;-74
2023/03/23 04:50:24;;;;;;;6.93;2.17;;;11.20;99.90;;;;;;4969263;28;20050;-75
2023/03/23 04:52:51;;;;;;;5.45;2.30;;;11.20;99.90;;;;;;4940544;28;20563;-75
2023/03/23 04:55:19;;;;;;;3.58;1.80;;;11.10;99.90;;;;;;4944315;28;20061;-74
2023/03/23 04:57:45;;;;;;;;;;;11.20;99.90;;;;;;4939118;28;20050;-75
2023/03/23 05:00:14;;;;;;;6.15;1.88;;;11.20;99.90;;;;;;4945524;28;20002;-75
2023/03/23 05:02:41;;;;;;;6.35;2.53;;;11.20;99.90;;;;;;4945944;28;20117;-75
2023/03/23 05:05:11;;;;;;;4.10;1.80;;;11.20;99.90;;;;;;4980226;28;20047;-74
2023/03/23 05:07:41;;;;;;;7.28;2.10;;;11.20;99.90;;;;;;4973110;28;20645;-75
2023/03/23 05:10:08;;;;;;;3.35;1.85;;;11.10;99.90;;;;;;4950811;28;20129;-75
2023/03/23 05:12:34;;;;;;;6.18;2.40;;;11.10;99.90;;;;;;4975688;28;20143;-74
2023/03/23 05:14:59;;;;;;;2.95;1.80;;;11.10;99.90;;;;;;4962397;28;20112;-75
2023/03/23 05:17:26;;;;;;;5.38;2.00;;;11.00;99.90;;;;;;4969003;28;20812;-75
2023/03/23 05:19:53;;;;;;;4.97;2.20;;;11.00;99.90;;;;;;4955704;28;20057;-74
2023/03/23 05:22:20;;;;;;;5.85;2.00;;;11.00;99.90;;;;;;4980029;28;20368;-74
2023/03/23 05:24:47;;;;;;;3.97;2.00;;;11.00;99.90;;;;;;4944243;28;20046;-74
2023/03/23 05:27:14;;;;;;;4.43;1.83;;;11.00;99.90;;;;;;4934509;28;20481;-75
2023/03/23 05:29:40;;;;;;;8.18;2.30;;;11.00;99.90;;;;;;4974719;28;20138;-75
2023/03/23 05:32:09;;;;;;;3.50;1.90;;;10.90;99.90;;;;;;4981045;28;20069;-74
2023/03/23 05:34:35;;;;;;;3.55;1.73;;;10.90;99.90;;;;;;4967700;28;20047;-75
2023/03/23 05:37:01;;;;;;;5.90;2.22;;;11.00;99.90;;;;;;4965414;28;20479;-75
2023/03/23 05:39:31;;;;;;;3.28;1.80;;;11.00;99.90;;;;;;4948775;28;20216;-74
2023/03/23 05:41:56;;;;;;;4.57;1.73;;;11.00;99.90;;;;;;4977493;28;20050;-74
2023/03/23 05:44:22;;;;;;;3.13;1.90;;;11.00;99.90;;;;;;4968944;28;20583;-75
2023/03/23 05:46:48;;;;;;;5.93;2.00;;;11.00;99.90;;;;;;4970849;28;20057;-75
2023/03/23 05:49:16;;;;;;;2.97;1.50;;;11.00;99.90;;;;;;4976265;28;20127;-74
2023/03/23 05:51:46;;;;;;;3.88;1.80;;;11.10;99.90;;;;;;4963734;28;20059;-75
2023/03/23 05:54:13;;;;;;;3.47;1.98;;;11.00;99.90;;;;;;4971025;28;20097;-75
2023/03/23 05:56:38;;;;;;;4.63;1.83;;;11.10;99.90;;;;;;4986350;28;20054;-75
2023/03/23 05:59:04;;;;;;;3.25;1.60;;;11.10;99.90;;;;;;4952237;28;20545;-74
2023/03/23 06:01:31;;;;;;;3.40;1.58;;;11.10;99.90;;;;;;4964623;28;20047;-75
2023/03/23 06:03:58;;;;;;;7.03;1.67;;;11.20;99.90;;;;;;4991008;28;20050;-75
2023/03/23 06:06:29;;;;;;;3.58;1.40;;;11.20;99.90;;;;;;4943516;28;20117;-75
2023/03/23 06:08:55;;;;;;;4.72;1.65;;;11.20;99.90;;;;;;4975540;28;20506;-74
2023/03/23 06:11:21;;;;;;;3.85;1.80;;;11.20;99.90;;;;;;4972095;28;20112;-74
2023/03/23 06:13:47;;;;;;;3.25;1.90;;;11.30;99.90;;;;;;4959977;28;20039;-74
2023/03/23 06:16:13;;;;;;;7.72;2.78;;;11.30;99.90;;;;;;4957005;28;20050;-74
2023/03/23 06:18:40;;;;;;;4.80;2.00;;;11.30;99.90;;;;;;4954781;28;20058;-74
2023/03/23 06:21:07;;;;;;;7.05;2.67;;;11.40;99.90;;;;;;4974028;28;20104;-75
2023/03/23 06:23:34;;;;;;;6.82;2.90;;;11.40;99.90;;;;;;4954678;28;20050;-74
2023/03/23 06:26:02;;;;;;;5.82;3.28;;;11.40;99.90;;;;;;4960286;28;20054;-74
2023/03/23 06:28:28;;;;;;;6.20;2.92;;;11.50;99.90;;;;;;4968176;28;20050;-75
2023/03/23 06:30:54;;;;;;;8.10;2.25;;;11.50;99.90;;;;;;4979923;28;20060;-74
2023/03/23 06:33:20;;;;;;;7.68;3.03;;;11.50;99.90;;;;;;4960444;28;20522;-74
2023/03/23 06:35:46;;;;;;;6.93;2.90;;;11.60;99.90;;;;;;4967313;28;20066;-75
2023/03/23 06:38:12;;;;;;;6.75;2.75;;;11.50;99.90;;;;;;4983475;28;20062;-74
2023/03/23 06:40:38;;;;;;;8.07;3.25;;;11.50;99.90;;;;;;4973756;28;20049;-75
2023/03/23 06:43:04;;;;;;;6.93;2.75;;;11.60;99.90;;;;;;4970770;28;20046;-75
2023/03/23 06:45:30;;;;;;;5.82;2.30;;;11.60;99.90;;;;;;4983201;28;20143;-74
2023/03/23 06:47:56;;;;;;;4.85;2.00;;;11.70;99.90;;;;;;4958139;28;20097;-74
2023/03/23 06:50:22;;;;;;;3.30;1.40;;;11.60;99.90;;;;;;4957296;28;20054;-75
2023/03/23 06:52:48;;;;;;;2.70;1.40;;;11.60;99.90;;;;;;4963406;28;20050;-76
2023/03/23 06:55:14;;;;;;;3.30;1.55;;;11.70;99.90;;;;;;4967822;28;20050;-75
2023/03/23 06:57:41;;;;;;;3.10;1.23;;;11.60;99.90;;;;;;4943357;28;20058;-75
2023/03/23 07:00:13;;;;;;;3.17;1.20;;;11.60;99.90;;;;;;4948540;28;20066;-75
2023/03/23 07:02:42;;;;;;;3.22;1.58;;;11.50;99.90;;;;;;4984282;28;20057;-73
2023/03/23 07:05:09;;;;;;;3.78;1.25;;;11.60;99.90;;;;;;4967872;28;20043;-73
2023/03/23 07:07:35;;;;;;;3.13;1.23;;;11.60;99.90;;;;;;4949714;28;20460;-73
2023/03/23 07:10:02;;;;;;;3.70;1.45;;;11.60;99.90;;;;;;4951428;28;20057;-73
2023/03/23 07:12:28;;;;;;;3.05;1.45;;;11.60;99.90;;;;;;4963108;28;20133;-75
2023/03/23 07:14:55;;;;;;;3.17;1.58;;;11.60;99.90;;;;;;4962655;28;20188;-75
2023/03/23 07:17:21;;;;;;;5.70;1.40;;;11.60;99.90;;;;;;4947719;28;20706;-75
2023/03/23 07:19:46;;;;;;;3.00;1.30;;;11.70;99.90;;;;;;4942829;28;20562;-74
2023/03/23 07:22:12;;;;;;;3.03;1.30;;;11.80;99.90;;;;;;4969763;28;20374;-75
2023/03/23 07:24:38;;;;;;;2.45;1.25;;;11.80;99.90;;;;;;4940813;28;20038;-74
2023/03/23 07:27:04;;;;;;;4.32;1.30;;;11.80;99.90;;;;;;4941262;28;20341;-75
2023/03/23 07:29:29;;;;;;;4.63;1.80;;;11.90;99.90;;;;;;4957247;28;20054;-74
2023/03/23 07:31:56;;;;;;;4.00;1.70;;;11.90;99.90;;;;;;4941673;28;20050;-74
2023/03/23 07:34:22;;;;;;;4.53;2.00;;;12.00;99.90;;;;;;4973860;28;20137;-74
2023/03/23 07:36:48;;;;;;;6.68;2.55;;;12.00;99.90;;;;;;4970985;28;20129;-75
2023/03/23 07:39:13;;;;;;;6.88;2.45;;;12.00;99.90;;;;;;4930600;28;20058;-75
2023/03/23 07:41:39;;;;;;;3.88;1.95;;;12.00;99.90;;;;;;4969486;28;20050;-75
2023/03/23 07:44:05;;;;;;;8.80;2.30;;;12.00;99.90;;;;;;4953646;28;20053;-75
2023/03/23 07:46:32;;;;;;;5.10;2.65;;;12.00;99.90;;;;;;4965924;28;20467;-75
2023/03/23 07:48:58;;;;;;;4.75;2.20;;;12.00;99.90;;;;;;4951248;28;20116;-75
2023/03/23 07:51:24;;;;;;;5.75;2.55;;;12.10;99.90;;;;;;4957557;28;20460;-76
2023/03/23 07:53:51;;;;;;;5.78;2.60;;;12.10;99.90;;;;;;4966111;28;20042;-74
2023/03/23 07:56:19;;;;;;;5.47;2.10;;;12.10;99.90;;;;;;4936674;28;20136;-75
2023/03/23 07:58:48;;;;;;;4.57;2.45;;;12.10;99.90;;;;;;4969714;28;20037;-74
2023/03/23 08:01:14;;;;;;;3.85;2.25;;;12.20;99.90;;;;;;4956181;28;20066;-75
2023/03/23 08:03:39;;;;;;;5.13;2.15;;;12.20;99.90;;;;;;4979128;28;20046;-75
2023/03/23 08:06:06;;;;;;;3.83;1.48;;;12.30;99.90;;;;;;4959013;28;20125;-76
2023/03/23 08:08:32;;;;;;;4.35;2.08;;;12.30;99.90;;;;;;4970002;28;20046;-74
2023/03/23 08:10:59;;;;;;;4.68;1.35;;;12.30;99.90;;;;;;4952878;28;20867;-73
2023/03/23 08:13:25;;;;;;;2.75;1.40;;;12.40;99.90;;;;;;4974846;28;20047;-74
2023/03/23 08:15:51;;;;;;;4.70;1.50;;;12.40;99.90;;;;;;4969283;28;20100;-74
2023/03/23 08:18:17;;;;;;;3.67;1.27;;;12.50;99.90;;;;;;4978710;28;20046;-73
2023/03/23 08:20:44;;;;;;;2.72;1.40;;;12.50;99.90;;;;;;4961389;28;20035;-74
2023/03/23 08:23:10;;;;;;;4.25;1.40;;;12.60;99.90;;;;;;4927589;28;20042;-74
2023/03/23 08:25:36;;;;;;;3.50;1.80;;;12.70;99.90;;;;;;4964700;28;20057;-73
2023/03/23 08:28:01;;;;;;;3.42;1.63;;;12.70;99.90;;;;;;4939658;28;20105;-74
2023/03/23 08:30:29;;;;;;;3.78;1.58;;;12.70;99.90;;;;;;4963858;28;20089;-74
2023/03/23 08:32:57;;;;;;;4.35;1.63;;;12.80;99.90;;;;;;4948744;28;20085;-74
2023/03/23 08:35:23;;;;;;;3.63;1.23;;;12.80;99.90;;;;;;4951537;28;20092;-74
2023/03/23 08:37:52;;;;;;;2.30;1.40;;;12.80;99.90;;;;;;4968596;28;20086;-74
2023/03/23 08:40:19;;;;;;;2.03;1.38;;;12.90;99.90;;;;;;4971796;28;20054;-73
2023/03/23 08:42:45;;;;;;;4.43;1.40;;;12.90;99.90;;;;;;4976906;28;20042;-74
2023/03/23 08:45:15;;;;;;;3.65;1.60;;;13.00;99.90;;;;;;4963642;28;20046;-73
2023/03/23 08:47:40;;;;;;;2.05;1.33;;;13.00;99.90;;;;;;4946248;28;20046;-73
2023/03/23 08:50:10;;;;;;;3.72;1.33;;;13.00;99.90;;;;;;4971977;28;20054;-72
2023/03/23 08:52:37;;;;;;;3.63;1.65;;;13.10;99.90;;;;;;4981335;28;20047;-71
2023/03/23 08:55:03;;;;;;;3.92;1.60;;;13.10;99.90;;;;;;4952034;28;20050;-73
2023/03/23 08:57:29;;;;;;;3.40;1.35;;;13.10;99.90;;;;;;4965721;28;20070;-73
2023/03/23 08:59:59;;;;;;;5.03;1.65;;;13.10;99.90;;;;;;4971132;28;20047;-73
2023/03/23 09:02:26;;;;;;;3.65;1.55;;;13.10;99.90;;;;;;4989526;28;20117;-73
2023/03/23 09:04:53;;;;;;;3.92;1.45;;;13.10;99.90;;;;;;4974695;28;20039;-73
2023/03/23 09:07:19;;;;;;;5.30;1.40;;;13.20;99.90;;;;;;4970155;28;20047;-72
2023/03/23 09:09:45;;;;;;;4.32;1.52;;;13.20;99.90;;;;;;4978025;28;20042;-73
2023/03/23 09:12:11;;;;;;;5.07;1.38;;;13.20;99.90;;;;;;4970671;28;20054;-73
2023/03/23 09:14:37;;;;;;;4.05;1.50;;;13.30;99.90;;;;;;4968436;28;20054;-73
2023/03/23 09:17:03;;;;;;;2.95;1.35;;;13.30;99.90;;;;;;4934857;28;20058;-74
2023/03/23 09:19:30;;;;;;;3.72;1.55;;;13.30;99.90;;;;;;4972746;28;20039;-73
2023/03/23 09:21:56;;;;;;;2.40;1.10;;;13.40;99.90;;;;;;4976707;28;20046;-73
2023/03/23 09:24:22;;;;;;;3.70;1.48;;;13.40;99.90;;;;;;4982476;28;20487;-73
2023/03/23 09:26:48;;;;;;;2.92;1.48;;;13.50;99.90;;;;;;4956345;28;20133;-73
2023/03/23 09:29:14;;;;;;;4.30;1.52;;;13.50;99.90;;;;;;4990155;28;20189;-73
2023/03/23 09:31:41;;;;;;;3.75;1.60;;;13.50;99.90;;;;;;4980965;28;20046;-73
2023/03/23 09:34:09;;;;;;;4.33;1.50;;;13.50;99.90;;;;;;4977997;28;20129;-73
2023/03/23 09:36:38;;;;;;;5.35;1.65;;;13.50;99.90;;;;;;4937276;28;20069;-73
2023/03/23 09:39:07;;;;;;;3.72;1.23;;;13.40;99.90;;;;;;4984415;28;20051;-74
2023/03/23 09:41:37;;;;;;;4.07;1.48;;;13.50;99.90;;;;;;4949056;28;20122;-74
2023/03/23 09:44:28;;;;;;;5.03;1.52;;;13.50;99.90;;;;;;4983390;28;20043;-74
2023/03/23 09:46:59;;;;;;;2.80;1.23;;;13.50;99.90;;;;;;4992633;28;20046;-73
2023/03/23 09:49:34;;;;;;;5.00;1.90;;;13.50;99.90;;;;;;4978464;28;20069;-73
2023/03/23 09:52:16;;;;;;;4.35;1.60;;;13.50;99.90;;;;;;4964267;28;20475;-74
2023/03/23 09:54:44;;;;;;;3.45;1.23;;;13.50;99.90;;;;;;4975937;28;20436;-73
2023/03/23 09:57:36;;;;;;;4.30;1.70;;;13.50;99.90;;;;;;4970714;28;20164;-73
2023/03/23 10:01:01;;;;;;;5.22;1.77;;;13.50;99.90;;;;;;4971627;28;20121;-73
2023/03/23 10:03:47;;;;;;;5.47;1.52;;;13.60;99.90;;;;;;4975859;28;20483;-73
2023/03/23 10:06:17;;;;;;;4.80;1.40;;;13.60;99.90;;;;;;4967977;28;21018;-73
2023/03/23 10:08:52;;;;;;;4.93;1.55;;;13.60;99.90;;;;;;4983257;28;20050;-73
2023/03/23 10:11:39;;;;;;;3.13;1.65;;;13.70;99.90;;;;;;4989269;28;20058;-73
2023/03/23 10:14:34;;;;;;;5.03;1.80;;;13.60;99.90;;;;;;4971707;28;20054;-71
2023/03/23 10:17:09;;;;;;;4.63;1.67;;;13.70;99.90;;;;;;4974773;28;20380;-73
2023/03/23 10:19:47;;;;;;;4.57;1.27;;;13.70;99.90;;;;;;4956287;28;20046;-73
2023/03/23 10:22:14;;;;;;;5.70;1.80;;;13.70;99.90;;;;;;4975411;28;20038;-73
2023/03/23 10:25:06;;;;;;;5.47;2.30;;;13.70;99.90;;;;;;4956926;28;20050;-73
2023/03/23 10:27:57;;;;;;;4.22;1.70;;;13.70;99.90;;;;;;4970485;28;20129;-73
2023/03/23 10:30:43;;;;;;;5.57;2.05;;;13.80;99.90;;;;;;4982359;28;20053;-72
2023/03/23 10:33:30;;;;;;;7.50;1.83;;;13.80;99.90;;;;;;4970632;28;20074;-73
2023/03/23 10:36:00;;;;;;;4.80;1.58;;;13.80;99.90;;;;;;4962214;28;20080;-73
2023/03/23 10:38:37;;;;;;;6.70;1.80;;;13.90;99.90;;;;;;4980067;28;20062;-74
2023/03/23 10:41:14;;;;;;;6.07;1.80;;;13.90;99.90;;;;;;4968085;28;20055;-73
2023/03/23 10:43:41;;;;;;;5.07;1.40;;;14.10;99.90;;;;;;4973414;28;20129;-74
2023/03/23 10:46:19;;;;;;;4.63;1.90;;;14.20;99.90;;;;;;4937855;28;20378;-73
2023/03/23 10:48:48;;;;;;;4.63;1.70;;;14.20;99.90;;;;;;4982983;28;20057;-73
2023/03/23 10:51:13;;;;;;;9.13;2.30;;;14.20;99.90;;;;;;4976997;28;20050;-73
2023/03/23 10:53:43;;;;;;;5.25;1.73;;;14.20;99.90;;;;;;4946436;28;20108;-73
2023/03/23 10:56:29;;;;;;;5.93;1.83;;;14.20;99.90;;;;;;4964657;28;20058;-73
2023/03/23 10:58:55;;;;;;;5.70;1.73;;;14.20;99.90;;;;;;4971944;28;20479;-73
2023/03/23 11:01:34;;;;;;;5.18;1.70;;;14.20;99.90;;;;;;4958690;28;20057;-73
2023/03/23 11:04:01;;;;;;;6.82;1.80;;;14.20;99.90;;;;;;4973068;28;20047;-73
2023/03/23 11:06:33;;;;;;;5.80;1.73;;;14.20;99.90;;;;;;4976910;28;20046;-73
2023/03/23 11:09:03;;;;;;;6.15;1.55;;;14.20;99.90;;;;;;4967558;28;20562;-73
2023/03/23 11:11:36;;;;;;;5.43;1.70;;;14.20;99.90;;;;;;4978123;28;20100;-73
2023/03/23 11:14:18;;;;;;;5.30;1.83;;;14.20;99.90;;;;;;4976741;28;20058;-74
2023/03/23 11:16:52;;;;;;;6.30;1.80;;;14.20;99.90;;;;;;4956590;28;20197;-73
2023/03/23 11:19:23;;;;;;;6.45;2.03;;;14.30;99.90;;;;;;4970774;28;20058;-74
2023/03/23 11:21:51;;;;;;;5.47;1.80;;;14.30;99.90;;;;;;4969097;28;20375;-74
2023/03/23 11:24:17;;;;;;;5.65;1.65;;;14.30;99.90;;;;;;4968762;28;20120;-73
2023/03/23 11:26:44;;;;;;;7.43;1.70;;;14.60;99.90;;;;;;4973469;28;20192;-74
2023/03/23 11:29:15;;;;;;;6.78;1.75;;;15.00;99.90;;;;;;4968759;28;20052;-74
2023/03/23 11:31:48;;;;;;;3.92;1.58;;;15.30;99.90;;;;;;4984763;28;20380;-75
2023/03/23 11:34:17;;;;;;;5.07;1.55;;;15.40;99.90;;;;;;4973398;28;20073;-74
2023/03/23 11:36:48;;;;;;;6.70;2.38;;;15.40;99.90;;;;;;4986523;28;20050;-73
2023/03/23 11:39:34;;;;;;;6.53;1.90;;;15.50;99.90;;;;;;4973496;28;20050;-73
2023/03/23 11:42:02;;;;;;;8.15;2.03;;;15.50;99.90;;;;;;4965943;28;20367;-73
2023/03/23 11:44:34;;;;;;;7.88;2.00;;;15.70;99.90;;;;;;4967887;28;20085;-74
2023/03/23 11:47:10;;;;;;;8.82;2.05;;;15.90;99.90;;;;;;4962806;28;20045;-73
2023/03/23 11:49:45;;;;;;;7.00;1.83;;;15.80;99.90;;;;;;4947002;28;20096;-73
2023/03/23 11:52:27;;;;;;;4.47;1.50;;;15.90;99.90;;;;;;4981187;28;20046;-73
2023/03/23 11:55:05;;;;;;;5.40;1.92;;;16.00;99.90;;;;;;4973062;28;20050;-73
2023/03/23 11:57:30;;;;;;;5.18;1.73;;;16.00;99.90;;;;;;4963026;28;20065;-74
2023/03/23 12:00:00;;;;;;;3.95;1.83;;;16.40;99.90;;;;;;4981494;28;20042;-74
2023/03/23 12:02:52;;;;;;;4.85;1.67;;;16.10;99.60;;;;;;4968594;28;20422;-73
2023/03/23 12:05:28;;;;;;;7.60;2.00;;;16.20;99.10;;;;;;4980954;28;20962;-73
2023/03/23 12:08:03;;;;;;;7.32;1.95;;;16.10;99.80;;;;;;4978010;28;20047;-73
2023/03/23 12:10:28;;;;;;;5.75;1.70;;;16.30;98.70;;;;;;4984904;28;20092;-74
2023/03/23 12:13:24;;;;;;;5.40;1.50;;;16.60;97.60;;;;;;4981690;28;20046;-73
2023/03/23 12:16:10;;;;;;;4.60;1.50;;;16.70;96.70;;;;;;4964825;28;20505;-73
2023/03/23 12:18:50;;;;;;;4.10;1.95;;;16.30;96.40;;;;;;4979398;28;20562;-74
2023/03/23 12:21:35;;;;;;;4.03;1.30;;;16.50;95.20;;;;;;4955514;28;20043;-74
2023/03/23 12:24:17;;;;;;;5.28;1.90;;;16.80;95.20;;;;;;4987895;28;20112;-74
2023/03/23 12:26:51;;;;;;;5.57;1.75;;;16.90;93.30;;;;;;4970885;28;20061;-73
2023/03/23 12:29:23;;;;;;;7.47;1.85;;;17.20;93.80;;;;;;4961496;28;20039;-75
2023/03/23 12:32:13;;;;;;;6.43;1.80;;;17.20;93.10;;;;;;4981267;28;20061;-73
2023/03/23 12:35:01;;;;;;;7.32;1.88;;;17.10;92.80;;;;;;4963525;28;20078;-73
2023/03/23 12:37:49;;;;;;;4.88;1.20;;;17.10;90.90;;;;;;4979090;28;20054;-73
2023/03/23 12:40:39;;;;;;;6.28;1.85;;;16.90;90.80;;;;;;4961093;28;20038;-73
2023/03/23 12:43:14;;;;;;;9.40;2.22;;;16.90;91.00;;;;;;4984030;28;20045;-74
2023/03/23 12:45:55;;;;;;;6.25;1.85;;;16.80;90.00;;;;;;4962658;28;21516;-76
2023/03/23 12:48:43;;;;;;;7.25;2.00;;;16.80;90.80;;;;;;4946506;28;20047;-74
2023/03/23 12:51:28;;;;;;;6.03;1.85;;;16.60;90.90;;;;;;4948321;28;20707;-73
2023/03/23 12:54:54;;;;;;;9.00;2.30;;;16.30;91.40;;;;;;4967651;28;20601;-73
2023/03/23 12:57:44;;;;;;;6.50;1.63;;;15.80;91.00;;;;;;4904542;29;20075;-75
2023/03/23 13:00:25;;;;;;;7.00;2.00;;;15.70;91.40;;;;;;4964362;28;20456;-75
2023/03/23 13:03:30;;;;;;;8.77;1.70;;;15.60;91.60;;;;;;4970615;28;20467;-75
2023/03/23 13:06:29;;;;;;;7.28;1.65;;;15.60;92.30;;;;;;4967915;28;20039;-74